Time;durP1;ratioP1;P1;durP2;ratioP2;P2;SDS_P1;SDS_P2;PMS_P1;PMS_P2;Temp;Humidity;BMP_temperature;BMP_pressure;BME280_temperature;BME280_humidity;BME280_pressure;Samples;Min_cycle;Max_cycle;Signal;HPM_P1;HPM_P2
2023/12/14 00:01:05;;;;;;;62.47;25.17;;;;;;;;;;6261410;28;20049;-65
2023/12/14 00:04:10;;;;;;;60.25;24.88;;;;;;;;;;6256884;28;20045;-65
2023/12/14 00:07:14;;;;;;;58.72;24.67;;;;;;;;;;6258043;28;20041;-65
2023/12/14 00:10:17;;;;;;;54.63;22.90;;;;;;;;;;6262277;28;20045;-65
2023/12/14 00:13:18;;;;;;;57.08;22.77;;;;;;;;;;6265865;28;20175;-65
2023/12/14 00:16:19;;;;;;;56.22;21.17;;;;;;;;;;6263174;28;20499;-65
2023/12/14 00:19:19;;;;;;;51.35;21.27;;;;;;;;;;6264128;28;20045;-63
2023/12/14 00:22:21;;;;;;;55.90;21.90;;;;;;;;;;6262218;28;20052;-63
2023/12/14 00:25:22;;;;;;;53.00;22.20;;;;;;;;;;6262383;28;20053;-65
2023/12/14 00:28:23;;;;;;;53.85;23.40;;;;;;;;;;6260290;28;20049;-65
2023/12/14 00:31:23;;;;;;;51.25;22.77;;;;;;;;;;6269121;28;20044;-64
2023/12/14 00:34:24;;;;;;;49.30;20.75;;;;;;;;;;6268304;28;20049;-64
2023/12/14 00:37:25;;;;;;;51.35;21.50;;;;;;;;;;6267549;28;20052;-65
2023/12/14 00:40:26;;;;;;;51.17;21.20;;;;;;;;;;6268738;28;20071;-64
2023/12/14 00:43:26;;;;;;;54.13;23.20;;;;;;;;;;6268569;28;20037;-64
2023/12/14 00:46:27;;;;;;;53.55;21.88;;;;;;;;;;6268309;28;20056;-64
2023/12/14 00:49:28;;;;;;;61.97;27.50;;;;;;;;;;6268606;28;20148;-63
2023/12/14 00:52:29;;;;;;;70.40;30.65;;;;;;;;;;6268762;28;20047;-64
2023/12/14 00:55:29;;;;;;;64.43;27.48;;;;;;;;;;6271290;28;20048;-66
2023/12/14 00:58:30;;;;;;;63.65;25.95;;;;;;;;;;6266566;28;20041;-65
2023/12/14 01:01:31;;;;;;;52.45;23.48;;;;;;;;;;6270581;28;20052;-65
2023/12/14 01:04:32;;;;;;;55.40;23.38;;;;;;;;;;6267122;28;20064;-64
2023/12/14 01:07:32;;;;;;;49.75;21.70;;;;;;;;;;6267150;28;20122;-65
2023/12/14 01:10:35;;;;;;;50.95;21.30;;;;;;;;;;6268367;28;20049;-65
2023/12/14 01:13:35;;;;;;;52.88;21.75;;;;;;;;;;6267735;28;20419;-65
2023/12/14 01:16:36;;;;;;;53.90;22.30;;;;;;;;;;6266802;28;20068;-65
2023/12/14 01:19:39;;;;;;;48.90;21.80;;;;;;;;;;6267164;28;20446;-66
2023/12/14 01:22:40;;;;;;;62.20;25.83;;;;;;;;;;6267615;28;20060;-65
2023/12/14 01:25:41;;;;;;;61.25;25.00;;;;;;;;;;6267151;28;20487;-65
2023/12/14 01:28:42;;;;;;;64.72;26.13;;;;;;;;;;6265233;28;20048;-65
2023/12/14 01:31:42;;;;;;;66.13;27.67;;;;;;;;;;6266200;28;20056;-63
2023/12/14 01:34:43;;;;;;;73.63;29.05;;;;;;;;;;6267306;28;20049;-64
2023/12/14 01:37:44;;;;;;;67.68;28.55;;;;;;;;;;6266328;28;20496;-64
2023/12/14 01:40:44;;;;;;;83.13;32.20;;;;;;;;;;6266456;28;20037;-65
2023/12/14 01:43:45;;;;;;;84.47;34.15;;;;;;;;;;6267894;28;20041;-63
2023/12/14 01:46:46;;;;;;;76.55;32.30;;;;;;;;;;6264576;28;20091;-66
2023/12/14 01:49:46;;;;;;;89.90;34.58;;;;;;;;;;6265855;28;20041;-65
2023/12/14 01:52:47;;;;;;;72.25;31.30;;;;;;;;;;6267368;28;20079;-64
2023/12/14 01:55:48;;;;;;;78.35;31.25;;;;;;;;;;6263828;28;20057;-66
2023/12/14 01:58:48;;;;;;;76.55;30.58;;;;;;;;;;6264842;28;20095;-64
2023/12/14 02:01:55;;;;;;;77.38;31.20;;;;;;;;;;6269367;28;20056;-65
2023/12/14 02:04:56;;;;;;;75.90;29.92;;;;;;;;;;6265547;28;20073;-65
2023/12/14 02:07:57;;;;;;;70.65;26.77;;;;;;;;;;6264870;28;20224;-66
2023/12/14 02:10:58;;;;;;;76.68;29.90;;;;;;;;;;6268418;28;20487;-66
2023/12/14 02:14:04;;;;;;;85.32;29.80;;;;;;;;;;6266672;28;20053;-66
2023/12/14 02:17:05;;;;;;;87.22;32.53;;;;;;;;;;6263098;28;20044;-66
2023/12/14 02:20:06;;;;;;;89.38;34.03;;;;;;;;;;6265335;28;20052;-64
2023/12/14 02:23:07;;;;;;;98.93;35.67;;;;;;;;;;6265812;28;20037;-64
2023/12/14 02:26:07;;;;;;;86.28;31.23;;;;;;;;;;6264770;28;20056;-65
2023/12/14 02:29:08;;;;;;;81.18;30.38;;;;;;;;;;6263976;28;20411;-64
2023/12/14 02:32:09;;;;;;;86.70;30.52;;;;;;;;;;6266533;28;20055;-64
2023/12/14 02:35:10;;;;;;;83.38;30.10;;;;;;;;;;6262491;28;20079;-64
2023/12/14 02:38:10;;;;;;;79.70;30.83;;;;;;;;;;6266419;28;20052;-65
2023/12/14 02:41:11;;;;;;;75.97;30.50;;;;;;;;;;6264465;28;20052;-65
2023/12/14 02:44:12;;;;;;;77.97;30.38;;;;;;;;;;6265747;28;20041;-65
2023/12/14 02:47:13;;;;;;;79.65;27.73;;;;;;;;;;6265013;28;20126;-64
2023/12/14 02:50:13;;;;;;;75.07;27.00;;;;;;;;;;6265142;28;20399;-65
2023/12/14 02:53:14;;;;;;;67.82;24.92;;;;;;;;;;6264379;28;20163;-64
2023/12/14 02:56:15;;;;;;;70.97;24.15;;;;;;;;;;6265301;28;20075;-64
2023/12/14 02:59:15;;;;;;;84.10;27.10;;;;;;;;;;6264177;28;20135;-65
2023/12/14 03:02:16;;;;;;;67.78;26.45;;;;;;;;;;6265760;28;20033;-65
2023/12/14 03:05:17;;;;;;;76.38;27.02;;;;;;;;;;6265496;28;20045;-65
2023/12/14 03:08:17;;;;;;;69.63;26.70;;;;;;;;;;6263688;28;20052;-64
2023/12/14 03:11:23;;;;;;;74.93;27.60;;;;;;;;;;6265753;28;20069;-65
2023/12/14 03:14:23;;;;;;;74.82;28.02;;;;;;;;;;6265018;28;20745;-65
2023/12/14 03:17:24;;;;;;;70.50;26.17;;;;;;;;;;6264593;28;20072;-64
2023/12/14 03:20:25;;;;;;;75.70;27.05;;;;;;;;;;6266850;28;20508;-64
2023/12/14 03:23:25;;;;;;;71.63;25.02;;;;;;;;;;6266888;28;20076;-65
2023/12/14 03:26:26;;;;;;;65.22;24.33;;;;;;;;;;6266072;28;20048;-65
2023/12/14 03:29:27;;;;;;;69.30;23.98;;;;;;;;;;6264772;28;20538;-64
2023/12/14 03:32:28;;;;;;;63.78;22.95;;;;;;;;;;6263686;28;20053;-64
2023/12/14 03:35:29;;;;;;;65.55;24.42;;;;;;;;;;6264111;28;20045;-64
2023/12/14 03:38:29;;;;;;;67.32;24.85;;;;;;;;;;6261260;28;20041;-66
2023/12/14 03:41:30;;;;;;;72.07;26.20;;;;;;;;;;6263014;28;20041;-64
2023/12/14 03:44:31;;;;;;;72.93;26.33;;;;;;;;;;6264306;28;20041;-64
2023/12/14 03:47:32;;;;;;;65.78;25.63;;;;;;;;;;6262161;28;20044;-65
2023/12/14 03:50:33;;;;;;;67.43;24.83;;;;;;;;;;6262789;28;20055;-65
2023/12/14 03:53:34;;;;;;;67.13;23.70;;;;;;;;;;6263950;28;20124;-65
2023/12/14 03:56:34;;;;;;;70.43;24.77;;;;;;;;;;6263505;28;20656;-65
2023/12/14 03:59:39;;;;;;;71.53;25.50;;;;;;;;;;6264044;28;20063;-64
2023/12/14 04:02:40;;;;;;;61.05;22.23;;;;;;;;;;6263884;28;20435;-65
2023/12/14 04:05:41;;;;;;;58.83;22.10;;;;;;;;;;6267967;28;20915;-65
2023/12/14 04:08:42;;;;;;;54.08;21.73;;;;;;;;;;6267937;28;20041;-65
2023/12/14 04:11:43;;;;;;;57.30;23.00;;;;;;;;;;6270142;28;20496;-64
2023/12/14 04:14:44;;;;;;;55.53;22.35;;;;;;;;;;6269069;28;20076;-65
2023/12/14 04:17:45;;;;;;;56.92;21.52;;;;;;;;;;6268816;28;20045;-65
2023/12/14 04:20:46;;;;;;;59.15;22.30;;;;;;;;;;6268839;28;20048;-64
2023/12/14 04:23:46;;;;;;;58.50;22.15;;;;;;;;;;6268967;28;20047;-65
2023/12/14 04:26:47;;;;;;;59.03;21.85;;;;;;;;;;6268621;28;20049;-65
2023/12/14 04:29:48;;;;;;;52.60;21.70;;;;;;;;;;6267204;28;20040;-65
2023/12/14 04:32:48;;;;;;;56.25;21.88;;;;;;;;;;6269283;28;20045;-64
2023/12/14 04:35:49;;;;;;;51.22;20.95;;;;;;;;;;6269091;28;20411;-64
2023/12/14 04:38:50;;;;;;;49.88;20.45;;;;;;;;;;6265329;28;20048;-65
2023/12/14 04:41:52;;;;;;;54.40;20.73;;;;;;;;;;6269003;28;20388;-64
2023/12/14 04:44:53;;;;;;;58.13;21.45;;;;;;;;;;6268521;28;20136;-63
2023/12/14 04:47:53;;;;;;;56.10;20.83;;;;;;;;;;6267134;28;20049;-64
2023/12/14 04:50:54;;;;;;;52.10;20.00;;;;;;;;;;6269119;28;20045;-64
2023/12/14 04:53:55;;;;;;;51.00;20.65;;;;;;;;;;6267900;28;20102;-63
2023/12/14 04:56:55;;;;;;;48.17;21.02;;;;;;;;;;6267987;28;20041;-65
2023/12/14 04:59:56;;;;;;;51.88;21.52;;;;;;;;;;6267135;28;20128;-65
2023/12/14 05:02:57;;;;;;;50.80;20.42;;;;;;;;;;6268936;28;20048;-64
2023/12/14 05:05:58;;;;;;;58.30;24.55;;;;;;;;;;6266342;28;20049;-63
2023/12/14 05:08:58;;;;;;;53.60;21.83;;;;;;;;;;6266147;28;20084;-63
2023/12/14 05:11:59;;;;;;;49.33;19.80;;;;;;;;;;6267726;28;20053;-65
2023/12/14 05:15:00;;;;;;;53.25;20.90;;;;;;;;;;6266585;28;20500;-65
2023/12/14 05:18:01;;;;;;;51.72;22.42;;;;;;;;;;6265951;28;20587;-64
2023/12/14 05:21:02;;;;;;;43.50;19.80;;;;;;;;;;6267539;28;20052;-63
2023/12/14 05:24:02;;;;;;;48.15;19.42;;;;;;;;;;6266711;28;20049;-64
2023/12/14 05:27:03;;;;;;;43.70;19.92;;;;;;;;;;6267247;28;20064;-64
2023/12/14 05:30:05;;;;;;;47.80;20.25;;;;;;;;;;6266620;28;20052;-64
2023/12/14 05:33:05;;;;;;;44.20;19.35;;;;;;;;;;6268015;28;20519;-64
2023/12/14 05:36:10;;;;;;;41.42;19.23;;;;;;;;;;6266422;28;20051;-66
2023/12/14 05:39:10;;;;;;;42.53;18.85;;;;;;;;;;6265525;28;20446;-65
2023/12/14 05:42:11;;;;;;;48.33;19.70;;;;;;;;;;6265600;28;20049;-64
2023/12/14 05:45:12;;;;;;;47.60;20.77;;;;;;;;;;6268897;28;20381;-63
2023/12/14 05:48:13;;;;;;;56.85;23.25;;;;;;;;;;6263508;28;20053;-64
2023/12/14 05:51:29;;;;;;;61.13;23.13;;;;;;;;;;6267098;28;20095;-64
2023/12/14 05:54:29;;;;;;;49.65;22.65;;;;;;;;;;6264730;28;20385;-64
2023/12/14 05:57:30;;;;;;;74.25;33.15;;;;;;;;;;6265028;28;20045;-64
2023/12/14 06:00:33;;;;;;;58.33;25.80;;;;;;;;;;6264835;28;20095;-63
2023/12/14 06:03:33;;;;;;;56.78;24.73;;;;;;;;;;6253714;28;20049;-64
2023/12/14 06:06:34;;;;;;;50.28;21.05;;;;;;;;;;6266251;28;20522;-63
2023/12/14 06:09:35;;;;;;;51.42;20.23;;;;;;;;;;6264653;28;20049;-63
2023/12/14 06:12:36;;;;;;;43.60;18.15;;;;;;;;;;6264556;28;20512;-63
2023/12/14 06:15:36;;;;;;;46.10;20.10;;;;;;;;;;6263336;28;20052;-65
2023/12/14 06:18:39;;;;;;;46.50;20.08;;;;;;;;;;6263793;28;20118;-65
2023/12/14 06:21:40;;;;;;;49.08;21.25;;;;;;;;;;6265889;28;20041;-63
2023/12/14 06:24:41;;;;;;;45.55;19.25;;;;;;;;;;6264217;28;20132;-65
2023/12/14 06:27:42;;;;;;;44.85;18.65;;;;;;;;;;6264032;28;20732;-64
2023/12/14 06:30:42;;;;;;;44.28;17.88;;;;;;;;;;6263667;28;20504;-64
2023/12/14 06:33:43;;;;;;;41.40;18.05;;;;;;;;;;6256683;28;20518;-63
2023/12/14 06:36:45;;;;;;;40.65;17.38;;;;;;;;;;6263760;28;20044;-65
2023/12/14 06:39:46;;;;;;;41.53;19.30;;;;;;;;;;6264631;28;20855;-64
2023/12/14 06:42:47;;;;;;;47.33;20.65;;;;;;;;;;6266486;28;20151;-64
2023/12/14 06:45:47;;;;;;;43.15;19.33;;;;;;;;;;6263452;28;20073;-63
2023/12/14 06:48:48;;;;;;;48.75;21.63;;;;;;;;;;6264591;28;20044;-64
2023/12/14 06:51:49;;;;;;;50.15;22.17;;;;;;;;;;6263788;28;20048;-64
2023/12/14 06:54:50;;;;;;;56.55;21.45;;;;;;;;;;6264291;28;20059;-64
2023/12/14 06:57:50;;;;;;;49.70;21.85;;;;;;;;;;6263901;28;20404;-64
2023/12/14 07:00:51;;;;;;;47.67;19.73;;;;;;;;;;6263840;28;20072;-64
2023/12/14 07:03:52;;;;;;;43.38;18.40;;;;;;;;;;6264964;28;20045;-64
2023/12/14 07:06:53;;;;;;;45.25;20.50;;;;;;;;;;6264556;28;20056;-63
2023/12/14 07:09:54;;;;;;;44.03;19.95;;;;;;;;;;6263634;28;20537;-64
2023/12/14 07:12:54;;;;;;;46.97;21.48;;;;;;;;;;6264098;28;20052;-64
2023/12/14 07:15:55;;;;;;;48.05;21.08;;;;;;;;;;6264471;28;20079;-63
2023/12/14 07:18:56;;;;;;;47.75;21.35;;;;;;;;;;6262302;28;20041;-64
2023/12/14 07:21:56;;;;;;;44.67;19.05;;;;;;;;;;6265009;28;20057;-64
2023/12/14 07:24:57;;;;;;;47.17;21.83;;;;;;;;;;6265350;28;20495;-64
2023/12/14 07:27:58;;;;;;;49.63;21.15;;;;;;;;;;6264149;28;20045;-64
2023/12/14 07:30:59;;;;;;;47.13;21.77;;;;;;;;;;6264083;28;20041;-64
2023/12/14 07:33:59;;;;;;;40.60;19.83;;;;;;;;;;6264086;28;20067;-64
2023/12/14 07:37:00;;;;;;;44.10;18.98;;;;;;;;;;6265156;28;20141;-64
2023/12/14 07:40:01;;;;;;;43.65;18.63;;;;;;;;;;6261345;28;20186;-64
2023/12/14 07:43:01;;;;;;;38.65;17.45;;;;;;;;;;6265183;28;20416;-63
2023/12/14 07:46:02;;;;;;;42.97;18.98;;;;;;;;;;6265646;28;20056;-63
2023/12/14 07:49:03;;;;;;;45.65;20.98;;;;;;;;;;6261035;28;20063;-63
2023/12/14 07:52:04;;;;;;;42.67;19.95;;;;;;;;;;6263133;28;20045;-64
2023/12/14 07:55:06;;;;;;;51.25;23.02;;;;;;;;;;6263950;28;20051;-64
2023/12/14 07:58:06;;;;;;;55.22;25.30;;;;;;;;;;6259783;28;20087;-64
2023/12/14 08:01:07;;;;;;;55.13;24.77;;;;;;;;;;6262292;28;20080;-64
2023/12/14 08:04:10;;;;;;;42.30;18.65;;;;;;;;;;6265883;28;20048;-64
2023/12/14 08:07:10;;;;;;;42.15;19.95;;;;;;;;;;6264749;28;20074;-64
2023/12/14 08:10:11;;;;;;;40.10;17.73;;;;;;;;;;6262415;28;20106;-64
2023/12/14 08:13:12;;;;;;;43.78;20.33;;;;;;;;;;6263573;28;20147;-64
2023/12/14 08:16:12;;;;;;;44.67;19.80;;;;;;;;;;6264572;28;20052;-64
2023/12/14 08:19:13;;;;;;;47.65;21.27;;;;;;;;;;6261093;28;20507;-64
2023/12/14 08:22:15;;;;;;;44.60;19.83;;;;;;;;;;6264251;28;20446;-63
2023/12/14 08:25:16;;;;;;;44.15;19.67;;;;;;;;;;6264271;28;20128;-64
2023/12/14 08:28:16;;;;;;;45.13;19.58;;;;;;;;;;6262039;28;20086;-64
2023/12/14 08:31:17;;;;;;;56.38;27.00;;;;;;;;;;6262749;28;20041;-64
2023/12/14 08:34:18;;;;;;;48.20;23.80;;;;;;;;;;6264263;28;20041;-64
2023/12/14 08:37:19;;;;;;;44.40;21.30;;;;;;;;;;6264654;28;20041;-64
2023/12/14 08:40:19;;;;;;;44.53;20.80;;;;;;;;;;6262504;28;20833;-64
2023/12/14 08:43:20;;;;;;;44.88;21.30;;;;;;;;;;6265436;28;20878;-64
2023/12/14 08:46:21;;;;;;;43.80;21.70;;;;;;;;;;6262710;28;20061;-64
2023/12/14 08:49:23;;;;;;;57.63;28.20;;;;;;;;;;6262374;28;20769;-64
2023/12/14 08:52:23;;;;;;;55.40;28.47;;;;;;;;;;6268218;28;20095;-64
2023/12/14 08:55:25;;;;;;;52.17;24.08;;;;;;;;;;6268522;28;20488;-64
2023/12/14 08:58:25;;;;;;;44.83;18.98;;;;;;;;;;6268255;28;20044;-63
2023/12/14 09:01:26;;;;;;;43.70;19.80;;;;;;;;;;6270218;28;20040;-64
2023/12/14 09:04:27;;;;;;;38.95;18.23;;;;;;;;;;6267993;28;20084;-63
2023/12/14 09:07:27;;;;;;;39.33;18.08;;;;;;;;;;6269784;28;20124;-65
2023/12/14 09:10:28;;;;;;;45.88;19.05;;;;;;;;;;6266896;28;20052;-64
2023/12/14 09:13:29;;;;;;;44.78;18.85;;;;;;;;;;6266158;28;20057;-63
2023/12/14 09:16:30;;;;;;;40.33;18.38;;;;;;;;;;6269978;28;20136;-64
2023/12/14 09:19:31;;;;;;;42.78;19.67;;;;;;;;;;6266260;28;20495;-63
2023/12/14 09:22:32;;;;;;;44.20;18.65;;;;;;;;;;6267989;28;20060;-64
2023/12/14 09:25:33;;;;;;;49.10;19.88;;;;;;;;;;6267640;28;20041;-63
2023/12/14 09:28:33;;;;;;;43.45;18.90;;;;;;;;;;6266696;28;20053;-65
2023/12/14 09:31:34;;;;;;;44.58;18.45;;;;;;;;;;6267056;28;20515;-64
2023/12/14 09:34:35;;;;;;;45.38;19.95;;;;;;;;;;6268697;28;20052;-64
2023/12/14 09:37:36;;;;;;;50.50;21.38;;;;;;;;;;6264725;28;20127;-64
2023/12/14 09:40:36;;;;;;;45.72;19.27;;;;;;;;;;6266633;28;20749;-64
2023/12/14 09:43:37;;;;;;;43.85;19.63;;;;;;;;;;6265730;28;20103;-64
2023/12/14 09:46:41;;;;;;;42.13;17.40;;;;;;;;;;6266104;28;20502;-63
2023/12/14 09:49:45;;;;;;;43.47;18.33;;;;;;;;;;6258674;28;20049;-62
2023/12/14 09:52:48;;;;;;;48.28;20.52;;;;;;;;;;6261330;28;20049;-64
2023/12/14 09:55:49;;;;;;;59.63;24.60;;;;;;;;;;6248795;28;20126;-64
2023/12/14 09:58:50;;;;;;;63.45;24.67;;;;;;;;;;6245056;28;20076;-64
2023/12/14 10:01:51;;;;;;;66.47;25.87;;;;;;;;;;6243761;28;20045;-64
2023/12/14 10:04:52;;;;;;;64.90;24.67;;;;;;;;;;6243651;28;20557;-64
2023/12/14 10:07:53;;;;;;;59.97;23.60;;;;;;;;;;6247266;28;20053;-63
2023/12/14 10:10:55;;;;;;;64.28;25.25;;;;;;;;;;6243667;28;20132;-64
2023/12/14 10:13:56;;;;;;;66.88;24.10;;;;;;;;;;6241528;28;20140;-63
2023/12/14 10:16:57;;;;;;;64.55;25.33;;;;;;;;;;6243843;28;20103;-64
2023/12/14 10:20:03;;;;;;;72.35;26.90;;;;;;;;;;6238079;28;20041;-64
2023/12/14 10:23:07;;;;;;;63.30;23.00;;;;;;;;;;6243300;28;20618;-64
2023/12/14 10:26:08;;;;;;;62.40;22.83;;;;;;;;;;6237365;28;20049;-64
2023/12/14 10:29:09;;;;;;;64.80;22.75;;;;;;;;;;6244490;28;20048;-63
2023/12/14 10:32:11;;;;;;;65.75;25.27;;;;;;;;;;6239395;28;20067;-63
2023/12/14 10:35:12;;;;;;;68.22;25.25;;;;;;;;;;6243206;28;20459;-63
2023/12/14 10:38:15;;;;;;;73.57;24.37;;;;;;;;;;6239857;28;20126;-65
2023/12/14 10:41:17;;;;;;;56.03;22.40;;;;;;;;;;6241831;28;20063;-64
2023/12/14 10:44:20;;;;;;;57.92;21.85;;;;;;;;;;6245737;28;20056;-65
2023/12/14 10:47:20;;;;;;;61.05;22.92;;;;;;;;;;6241486;28;20057;-64
2023/12/14 10:50:22;;;;;;;58.92;22.42;;;;;;;;;;6238928;28;20382;-64
2023/12/14 10:53:23;;;;;;;55.57;23.07;;;;;;;;;;6240440;28;20090;-64
2023/12/14 10:56:24;;;;;;;64.05;24.38;;;;;;;;;;6241467;28;20053;-63
2023/12/14 10:59:25;;;;;;;59.20;23.30;;;;;;;;;;6243520;28;20096;-64
2023/12/14 11:02:25;;;;;;;62.42;24.63;;;;;;;;;;6244213;28;20037;-64
2023/12/14 11:05:30;;;;;;;70.28;25.48;;;;;;;;;;6244124;28;20560;-65
2023/12/14 11:08:34;;;;;;;50.28;20.58;;;;;;;;;;6240577;28;20079;-63
2023/12/14 11:11:53;;;;;;;49.80;21.73;;;;;;;;;;6240767;28;20092;-64
2023/12/14 11:14:54;;;;;;;61.97;23.40;;;;;;;;;;6242259;28;20135;-64
2023/12/14 11:18:10;;;;;;;53.28;22.00;;;;;;;;;;6246022;28;20506;-65
2023/12/14 11:21:19;;;;;;;57.35;22.15;;;;;;;;;;6241720;28;20045;-64
2023/12/14 11:24:19;;;;;;;56.72;22.23;;;;;;;;;;6239228;28;20520;-64
2023/12/14 11:27:26;;;;;;;55.78;22.27;;;;;;;;;;6241056;28;20068;-64
2023/12/14 11:30:27;;;;;;;55.03;22.27;;;;;;;;;;6241587;28;20045;-64
2023/12/14 11:33:28;;;;;;;55.85;22.15;;;;;;;;;;6241857;28;20045;-64
2023/12/14 11:36:29;;;;;;;54.90;22.15;;;;;;;;;;6240144;28;20095;-64
2023/12/14 11:39:31;;;;;;;60.72;24.75;;;;;;;;;;6242261;28;20569;-64
2023/12/14 11:42:32;;;;;;;64.20;24.80;;;;;;;;;;6244742;28;20045;-64
2023/12/14 11:45:42;;;;;;;61.92;25.17;;;;;;;;;;6237305;28;20483;-63
2023/12/14 11:48:48;;;;;;;62.38;24.38;;;;;;;;;;6240684;28;20061;-64
2023/12/14 11:51:51;;;;;;;76.78;25.05;;;;;;;;;;6246377;28;20045;-63
2023/12/14 11:54:52;;;;;;;59.03;23.10;;;;;;;;;;6240394;28;20053;-64
2023/12/14 11:57:53;;;;;;;63.40;25.67;;;;;;;;;;6261035;28;20056;-64
2023/12/14 12:00:55;;;;;;;60.13;24.02;;;;;;;;;;6245827;28;20041;-64
2023/12/14 12:03:56;;;;;;;59.50;23.17;;;;;;;;;;6238148;28;20033;-64
2023/12/14 12:07:04;;;;;;;59.13;23.98;;;;;;;;;;6242616;28;20072;-64
2023/12/14 12:10:06;;;;;;;57.53;23.10;;;;;;;;;;6244342;28;20049;-64
2023/12/14 12:13:11;;;;;;;61.25;24.08;;;;;;;;;;6239953;28;20637;-64
2023/12/14 12:16:12;;;;;;;65.35;24.73;;;;;;;;;;6236476;28;20103;-64
2023/12/14 12:19:12;;;;;;;59.65;23.83;;;;;;;;;;6239823;28;20049;-65
2023/12/14 12:22:13;;;;;;;59.17;23.02;;;;;;;;;;6240031;28;20090;-64
2023/12/14 12:25:14;;;;;;;57.67;22.17;;;;;;;;;;6239779;28;20056;-64
2023/12/14 12:28:15;;;;;;;59.15;24.08;;;;;;;;;;6248247;28;20627;-64
2023/12/14 12:31:16;;;;;;;56.45;23.85;;;;;;;;;;6246832;28;20041;-64
2023/12/14 12:34:17;;;;;;;63.40;24.58;;;;;;;;;;6243905;28;20119;-65
2023/12/14 12:37:18;;;;;;;53.95;22.05;;;;;;;;;;6244152;28;20159;-64
2023/12/14 12:40:25;;;;;;;59.65;23.95;;;;;;;;;;6245529;28;20563;-65
2023/12/14 12:43:26;;;;;;;59.00;22.02;;;;;;;;;;6244266;28;20045;-64
2023/12/14 12:46:26;;;;;;;56.22;22.77;;;;;;;;;;6239406;28;20572;-64
2023/12/14 12:49:27;;;;;;;59.42;22.95;;;;;;;;;;6248127;28;20061;-65
2023/12/14 12:52:28;;;;;;;56.97;22.27;;;;;;;;;;6250558;28;20048;-64
2023/12/14 12:55:28;;;;;;;57.45;22.52;;;;;;;;;;6241679;28;20045;-64
2023/12/14 12:58:29;;;;;;;53.72;22.42;;;;;;;;;;6250056;28;20834;-64
2023/12/14 13:01:30;;;;;;;58.90;22.80;;;;;;;;;;6243724;28;20049;-64
2023/12/14 13:04:31;;;;;;;60.28;22.88;;;;;;;;;;6244740;28;20053;-65
2023/12/14 13:07:32;;;;;;;54.90;21.98;;;;;;;;;;6246339;28;20231;-65
2023/12/14 13:10:33;;;;;;;57.95;21.17;;;;;;;;;;6244834;28;20079;-64
2023/12/14 13:13:33;;;;;;;54.65;22.23;;;;;;;;;;6244218;28;20057;-65
2023/12/14 13:16:35;;;;;;;58.67;21.92;;;;;;;;;;6241637;28;20057;-64
2023/12/14 13:19:36;;;;;;;62.08;23.20;;;;;;;;;;6243301;28;20064;-64
2023/12/14 13:22:36;;;;;;;57.78;23.85;;;;;;;;;;6244932;28;20148;-64
2023/12/14 13:25:37;;;;;;;69.25;22.38;;;;;;;;;;6236794;28;20420;-65
2023/12/14 13:28:38;;;;;;;63.33;23.13;;;;;;;;;;6243636;28;20484;-64
2023/12/14 13:31:38;;;;;;;55.45;23.23;;;;;;;;;;6244479;28;20654;-64
2023/12/14 13:34:39;;;;;;;59.78;23.60;;;;;;;;;;6241478;28;20749;-65
2023/12/14 13:37:40;;;;;;;60.58;22.70;;;;;;;;;;6243405;28;20098;-64
2023/12/14 13:40:41;;;;;;;55.30;21.67;;;;;;;;;;6244540;28;20049;-64
2023/12/14 13:43:41;;;;;;;53.03;21.92;;;;;;;;;;6244326;28;20045;-64
2023/12/14 13:46:42;;;;;;;54.00;23.52;;;;;;;;;;6241923;28;20067;-65
2023/12/14 13:49:43;;;;;;;54.03;22.42;;;;;;;;;;6246784;28;20515;-64
2023/12/14 13:52:43;;;;;;;54.95;23.35;;;;;;;;;;6245416;28;20824;-64
2023/12/14 13:55:44;;;;;;;55.22;22.42;;;;;;;;;;6243167;28;20126;-63
2023/12/14 13:58:46;;;;;;;60.05;24.45;;;;;;;;;;6247206;28;20055;-64
2023/12/14 14:01:50;;;;;;;55.95;24.10;;;;;;;;;;6246088;28;20159;-65
2023/12/14 14:04:52;;;;;;;52.92;22.67;;;;;;;;;;6241949;28;20143;-63
2023/12/14 14:07:52;;;;;;;52.20;22.03;;;;;;;;;;6241243;28;20049;-64
2023/12/14 14:10:53;;;;;;;41.28;18.67;;;;;;;;;;6248428;28;20477;-63
2023/12/14 14:13:54;;;;;;;49.08;21.05;;;;;;;;;;6246250;28;20045;-64
2023/12/14 14:16:55;;;;;;;47.50;20.75;;;;;;;;;;6245081;28;20053;-64
2023/12/14 14:19:55;;;;;;;51.45;23.17;;;;;;;;;;6245821;28;20048;-64
2023/12/14 14:22:59;;;;;;;52.35;22.45;;;;;;;;;;6240490;28;20046;-64
2023/12/14 14:25:59;;;;;;;46.20;21.52;;;;;;;;;;6241479;28;20053;-64
2023/12/14 14:29:01;;;;;;;54.47;22.88;;;;;;;;;;6247236;28;20836;-63
2023/12/14 14:32:02;;;;;;;51.78;24.42;;;;;;;;;;6245464;28;20060;-65
2023/12/14 14:35:04;;;;;;;57.25;22.00;;;;;;;;;;6242208;28;20057;-65
2023/12/14 14:38:05;;;;;;;51.70;22.10;;;;;;;;;;6240717;28;20045;-65
2023/12/14 14:41:05;;;;;;;48.92;22.33;;;;;;;;;;6244483;28;20051;-64
2023/12/14 14:44:06;;;;;;;50.83;22.08;;;;;;;;;;6243284;28;20045;-65
2023/12/14 14:47:07;;;;;;;53.17;23.23;;;;;;;;;;6243964;28;20045;-64
2023/12/14 14:50:08;;;;;;;57.08;23.55;;;;;;;;;;6247260;28;20805;-65
2023/12/14 14:53:09;;;;;;;47.53;20.73;;;;;;;;;;6245695;28;20061;-64
2023/12/14 14:56:10;;;;;;;44.22;20.50;;;;;;;;;;6240848;28;20468;-65
2023/12/14 14:59:15;;;;;;;47.42;21.42;;;;;;;;;;6244536;28;20492;-65
2023/12/14 15:02:15;;;;;;;48.25;19.75;;;;;;;;;;6243984;28;20516;-64
2023/12/14 15:05:16;;;;;;;48.13;20.40;;;;;;;;;;6245363;28;20057;-64
2023/12/14 15:08:17;;;;;;;49.38;21.40;;;;;;;;;;6239718;28;20052;-64
2023/12/14 15:11:18;;;;;;;48.28;20.55;;;;;;;;;;6242128;28;20053;-63
2023/12/14 15:14:18;;;;;;;45.70;20.15;;;;;;;;;;6237650;28;20057;-64
2023/12/14 15:17:20;;;;;;;47.70;21.63;;;;;;;;;;6243884;28;20054;-63
2023/12/14 15:20:21;;;;;;;50.25;21.33;;;;;;;;;;6241594;28;20045;-63
2023/12/14 15:23:21;;;;;;;47.15;20.70;;;;;;;;;;6239057;28;20155;-64
2023/12/14 15:26:22;;;;;;;50.80;21.40;;;;;;;;;;6235344;28;20064;-64
2023/12/14 15:29:23;;;;;;;47.58;20.60;;;;;;;;;;6239458;28;20049;-65
2023/12/14 15:32:23;;;;;;;42.53;19.52;;;;;;;;;;6234806;28;20768;-64
2023/12/14 15:35:24;;;;;;;48.80;20.75;;;;;;;;;;6230916;28;20084;-65
2023/12/14 15:38:25;;;;;;;51.20;21.38;;;;;;;;;;6235843;28;20591;-64
2023/12/14 15:41:27;;;;;;;52.55;21.30;;;;;;;;;;6245608;28;20080;-66
2023/12/14 15:44:27;;;;;;;50.47;20.77;;;;;;;;;;6252880;28;20053;-65
2023/12/14 15:47:28;;;;;;;50.05;20.42;;;;;;;;;;6239025;28;20076;-64
2023/12/14 15:50:29;;;;;;;53.00;21.45;;;;;;;;;;6243212;28;20045;-64
2023/12/14 15:53:31;;;;;;;48.75;21.58;;;;;;;;;;6245332;28;20054;-64
2023/12/14 15:56:31;;;;;;;46.85;22.02;;;;;;;;;;6241080;28;20041;-64
2023/12/14 15:59:32;;;;;;;47.28;20.67;;;;;;;;;;6246835;28;20081;-64
2023/12/14 16:02:33;;;;;;;52.13;22.73;;;;;;;;;;6249883;28;20068;-65
2023/12/14 16:05:38;;;;;;;48.67;21.88;;;;;;;;;;6247045;28;20061;-64
2023/12/14 16:08:39;;;;;;;60.65;23.20;;;;;;;;;;6266876;28;20053;-64
2023/12/14 16:11:40;;;;;;;59.42;23.48;;;;;;;;;;6247753;28;20049;-64
2023/12/14 16:14:40;;;;;;;55.28;23.27;;;;;;;;;;6250108;28;20610;-65
2023/12/14 16:17:41;;;;;;;60.22;23.88;;;;;;;;;;6244935;28;20136;-63
2023/12/14 16:20:42;;;;;;;61.80;24.48;;;;;;;;;;6246679;28;20715;-65
2023/12/14 16:23:43;;;;;;;62.83;24.50;;;;;;;;;;6252219;28;20166;-63
2023/12/14 16:26:45;;;;;;;58.45;23.13;;;;;;;;;;6251111;28;20050;-64
2023/12/14 16:29:48;;;;;;;64.70;26.45;;;;;;;;;;6252622;28;20966;-64
2023/12/14 16:32:48;;;;;;;66.72;26.25;;;;;;;;;;6252629;28;20041;-65
2023/12/14 16:35:49;;;;;;;66.10;27.35;;;;;;;;;;6247103;28;20139;-63
2023/12/14 16:38:50;;;;;;;66.97;28.17;;;;;;;;;;6246508;28;20061;-64
2023/12/14 16:41:51;;;;;;;69.30;27.02;;;;;;;;;;6244950;28;20053;-65
2023/12/14 16:44:51;;;;;;;68.18;25.33;;;;;;;;;;6251463;28;20049;-65
2023/12/14 16:47:52;;;;;;;65.07;25.08;;;;;;;;;;6246262;28;20053;-64
2023/12/14 16:50:55;;;;;;;62.05;24.08;;;;;;;;;;6248612;28;20179;-63
2023/12/14 16:53:56;;;;;;;65.97;24.58;;;;;;;;;;6249330;28;20052;-63
2023/12/14 16:56:57;;;;;;;66.57;24.67;;;;;;;;;;6248529;28;20049;-63
2023/12/14 16:59:58;;;;;;;63.42;22.40;;;;;;;;;;6248471;28;20052;-66
2023/12/14 17:02:59;;;;;;;58.55;22.20;;;;;;;;;;6248722;28;20071;-66
2023/12/14 17:05:59;;;;;;;59.63;21.80;;;;;;;;;;6251972;28;20052;-66
2023/12/14 17:09:00;;;;;;;69.55;24.35;;;;;;;;;;6246927;28;20049;-66
2023/12/14 17:12:01;;;;;;;66.57;22.92;;;;;;;;;;6243363;28;20128;-64
2023/12/14 17:15:02;;;;;;;66.45;22.73;;;;;;;;;;6242255;28;20707;-65
2023/12/14 17:18:03;;;;;;;64.20;24.38;;;;;;;;;;6250338;28;20195;-64
2023/12/14 17:21:04;;;;;;;55.17;22.65;;;;;;;;;;6246077;28;20606;-64
2023/12/14 17:24:09;;;;;;;65.03;24.33;;;;;;;;;;6242697;28;20046;-63
2023/12/14 17:27:09;;;;;;;68.20;23.92;;;;;;;;;;6241819;28;20061;-64
2023/12/14 17:30:10;;;;;;;71.30;24.95;;;;;;;;;;6243742;28;20140;-63
2023/12/14 17:33:12;;;;;;;74.93;25.90;;;;;;;;;;6244407;28;20056;-64